sensor_id;sensor_type;location;lat;lon;timestamp;P1;durP1;ratioP1;P2;durP2;ratioP2
29120;SDS011;16191;49.548;8.658;2022-11-20T00:01:06;24.90;;;16.33;;
29120;SDS011;16191;49.548;8.658;2022-11-20T00:03:35;25.77;;;16.73;;
29120;SDS011;16191;49.548;8.658;2022-11-20T00:06:05;25.00;;;15.73;;
29120;SDS011;16191;49.548;8.658;2022-11-20T00:08:33;28.13;;;17.98;;
29120;SDS011;16191;49.548;8.658;2022-11-20T00:11:07;25.27;;;16.52;;
29120;SDS011;16191;49.548;8.658;2022-11-20T00:16:09;30.27;;;19.27;;
29120;SDS011;16191;49.548;8.658;2022-11-20T00:18:37;31.27;;;18.52;;
29120;SDS011;16191;49.548;8.658;2022-11-20T00:21:04;26.75;;;17.42;;
29120;SDS011;16191;49.548;8.658;2022-11-20T00:23:33;27.02;;;17.83;;
29120;SDS011;16191;49.548;8.658;2022-11-20T00:26:03;28.55;;;18.27;;
29120;SDS011;16191;49.548;8.658;2022-11-20T00:28:31;29.20;;;16.77;;
29120;SDS011;16191;49.548;8.658;2022-11-20T00:31:02;26.63;;;17.15;;
29120;SDS011;16191;49.548;8.658;2022-11-20T00:33:33;30.63;;;17.00;;
29120;SDS011;16191;49.548;8.658;2022-11-20T00:36:04;24.58;;;15.65;;
29120;SDS011;16191;49.548;8.658;2022-11-20T00:38:36;28.17;;;17.48;;
29120;SDS011;16191;49.548;8.658;2022-11-20T00:41:04;24.27;;;15.68;;
29120;SDS011;16191;49.548;8.658;2022-11-20T00:43:33;24.27;;;15.37;;
29120;SDS011;16191;49.548;8.658;2022-11-20T00:46:04;23.33;;;14.93;;
29120;SDS011;16191;49.548;8.658;2022-11-20T00:48:33;22.90;;;13.77;;
29120;SDS011;16191;49.548;8.658;2022-11-20T00:51:00;20.20;;;13.45;;
29120;SDS011;16191;49.548;8.658;2022-11-20T00:53:27;24.05;;;14.85;;
29120;SDS011;16191;49.548;8.658;2022-11-20T00:56:01;21.70;;;14.27;;
29120;SDS011;16191;49.548;8.658;2022-11-20T00:58:31;21.40;;;14.23;;
29120;SDS011;16191;49.548;8.658;2022-11-20T01:03:32;21.67;;;14.15;;
29120;SDS011;16191;49.548;8.658;2022-11-20T01:06:23;23.38;;;14.88;;
29120;SDS011;16191;49.548;8.658;2022-11-20T01:08:49;19.85;;;13.38;;
29120;SDS011;16191;49.548;8.658;2022-11-20T01:11:19;21.13;;;14.65;;
29120;SDS011;16191;49.548;8.658;2022-11-20T01:13:48;21.77;;;14.53;;
29120;SDS011;16191;49.548;8.658;2022-11-20T01:16:18;19.08;;;13.20;;
29120;SDS011;16191;49.548;8.658;2022-11-20T01:18:47;20.45;;;13.75;;
29120;SDS011;16191;49.548;8.658;2022-11-20T01:21:18;22.67;;;15.18;;
29120;SDS011;16191;49.548;8.658;2022-11-20T01:23:47;26.43;;;15.00;;
29120;SDS011;16191;49.548;8.658;2022-11-20T01:26:19;24.50;;;14.80;;
29120;SDS011;16191;49.548;8.658;2022-11-20T01:28:48;20.52;;;13.73;;
29120;SDS011;16191;49.548;8.658;2022-11-20T01:31:29;20.33;;;13.85;;
29120;SDS011;16191;49.548;8.658;2022-11-20T01:34:01;19.30;;;12.70;;
29120;SDS011;16191;49.548;8.658;2022-11-20T01:36:31;22.05;;;13.82;;
29120;SDS011;16191;49.548;8.658;2022-11-20T01:39:00;21.23;;;14.20;;
29120;SDS011;16191;49.548;8.658;2022-11-20T01:41:29;25.88;;;15.27;;
29120;SDS011;16191;49.548;8.658;2022-11-20T01:44:17;23.73;;;15.98;;
29120;SDS011;16191;49.548;8.658;2022-11-20T01:46:53;25.10;;;16.80;;
29120;SDS011;16191;49.548;8.658;2022-11-20T01:49:33;24.65;;;16.23;;
29120;SDS011;16191;49.548;8.658;2022-11-20T01:52:04;24.13;;;15.05;;
29120;SDS011;16191;49.548;8.658;2022-11-20T01:54:43;26.55;;;16.77;;
29120;SDS011;16191;49.548;8.658;2022-11-20T01:57:35;27.27;;;17.42;;
29120;SDS011;16191;49.548;8.658;2022-11-20T02:00:24;31.08;;;18.77;;
29120;SDS011;16191;49.548;8.658;2022-11-20T02:03:11;27.20;;;16.85;;
29120;SDS011;16191;49.548;8.658;2022-11-20T02:06:04;24.73;;;16.70;;
29120;SDS011;16191;49.548;8.658;2022-11-20T02:08:56;26.33;;;17.20;;
29120;SDS011;16191;49.548;8.658;2022-11-20T02:11:42;28.08;;;17.02;;
29120;SDS011;16191;49.548;8.658;2022-11-20T02:14:09;25.17;;;15.57;;
29120;SDS011;16191;49.548;8.658;2022-11-20T02:16:37;23.85;;;16.40;;
29120;SDS011;16191;49.548;8.658;2022-11-20T02:19:30;28.88;;;17.98;;
29120;SDS011;16191;49.548;8.658;2022-11-20T02:22:11;25.40;;;18.00;;
29120;SDS011;16191;49.548;8.658;2022-11-20T02:24:45;26.75;;;17.10;;
29120;SDS011;16191;49.548;8.658;2022-11-20T02:27:15;26.58;;;17.08;;
29120;SDS011;16191;49.548;8.658;2022-11-20T02:32:30;25.55;;;17.27;;
29120;SDS011;16191;49.548;8.658;2022-11-20T02:35:06;23.30;;;14.68;;
29120;SDS011;16191;49.548;8.658;2022-11-20T02:37:37;27.40;;;15.20;;
29120;SDS011;16191;49.548;8.658;2022-11-20T02:40:06;22.13;;;14.82;;
29120;SDS011;16191;49.548;8.658;2022-11-20T02:42:33;24.05;;;14.60;;
29120;SDS011;16191;49.548;8.658;2022-11-20T02:45:00;24.05;;;14.15;;
29120;SDS011;16191;49.548;8.658;2022-11-20T02:47:27;20.67;;;13.57;;
29120;SDS011;16191;49.548;8.658;2022-11-20T02:49:54;23.10;;;14.63;;
29120;SDS011;16191;49.548;8.658;2022-11-20T02:52:20;22.80;;;14.65;;
29120;SDS011;16191;49.548;8.658;2022-11-20T02:54:47;21.80;;;14.55;;
29120;SDS011;16191;49.548;8.658;2022-11-20T02:57:14;19.90;;;13.85;;
29120;SDS011;16191;49.548;8.658;2022-11-20T02:59:40;22.38;;;14.23;;
29120;SDS011;16191;49.548;8.658;2022-11-20T03:02:07;19.92;;;14.10;;
29120;SDS011;16191;49.548;8.658;2022-11-20T03:04:34;19.85;;;13.13;;
29120;SDS011;16191;49.548;8.658;2022-11-20T03:07:01;21.52;;;12.95;;
29120;SDS011;16191;49.548;8.658;2022-11-20T03:09:28;18.48;;;12.52;;
29120;SDS011;16191;49.548;8.658;2022-11-20T03:11:55;19.55;;;13.40;;
29120;SDS011;16191;49.548;8.658;2022-11-20T03:14:22;21.58;;;13.43;;
29120;SDS011;16191;49.548;8.658;2022-11-20T03:16:49;21.75;;;13.80;;
29120;SDS011;16191;49.548;8.658;2022-11-20T03:19:15;18.98;;;13.20;;
29120;SDS011;16191;49.548;8.658;2022-11-20T03:21:42;24.13;;;14.13;;
29120;SDS011;16191;49.548;8.658;2022-11-20T03:24:09;21.83;;;13.70;;
29120;SDS011;16191;49.548;8.658;2022-11-20T03:26:36;20.90;;;12.90;;
29120;SDS011;16191;49.548;8.658;2022-11-20T03:29:03;20.13;;;13.35;;
29120;SDS011;16191;49.548;8.658;2022-11-20T03:31:32;20.02;;;13.10;;
29120;SDS011;16191;49.548;8.658;2022-11-20T03:34:01;19.45;;;12.52;;
29120;SDS011;16191;49.548;8.658;2022-11-20T03:36:29;18.42;;;12.05;;
29120;SDS011;16191;49.548;8.658;2022-11-20T03:38:56;20.02;;;12.68;;
29120;SDS011;16191;49.548;8.658;2022-11-20T03:41:24;17.75;;;12.43;;
29120;SDS011;16191;49.548;8.658;2022-11-20T03:43:57;20.27;;;12.82;;
29120;SDS011;16191;49.548;8.658;2022-11-20T03:46:26;19.17;;;12.43;;
29120;SDS011;16191;49.548;8.658;2022-11-20T03:48:53;24.23;;;13.75;;
29120;SDS011;16191;49.548;8.658;2022-11-20T03:51:22;21.00;;;13.77;;
29120;SDS011;16191;49.548;8.658;2022-11-20T03:53:50;22.15;;;13.25;;
29120;SDS011;16191;49.548;8.658;2022-11-20T03:56:19;22.25;;;14.50;;
29120;SDS011;16191;49.548;8.658;2022-11-20T03:58:49;22.63;;;14.70;;
29120;SDS011;16191;49.548;8.658;2022-11-20T04:01:20;21.67;;;14.00;;
29120;SDS011;16191;49.548;8.658;2022-11-20T04:03:49;23.92;;;14.63;;
29120;SDS011;16191;49.548;8.658;2022-11-20T04:06:20;22.05;;;14.65;;
29120;SDS011;16191;49.548;8.658;2022-11-20T04:08:48;23.75;;;14.85;;
29120;SDS011;16191;49.548;8.658;2022-11-20T04:13:52;23.25;;;15.00;;
29120;SDS011;16191;49.548;8.658;2022-11-20T04:16:21;26.48;;;15.38;;
29120;SDS011;16191;49.548;8.658;2022-11-20T04:18:52;26.10;;;15.63;;
29120;SDS011;16191;49.548;8.658;2022-11-20T04:21:20;23.13;;;14.32;;
29120;SDS011;16191;49.548;8.658;2022-11-20T04:23:47;23.83;;;15.48;;
29120;SDS011;16191;49.548;8.658;2022-11-20T04:26:15;26.98;;;15.80;;
29120;SDS011;16191;49.548;8.658;2022-11-20T04:28:42;23.55;;;15.10;;
29120;SDS011;16191;49.548;8.658;2022-11-20T04:31:10;27.80;;;16.42;;
29120;SDS011;16191;49.548;8.658;2022-11-20T04:33:40;26.95;;;17.92;;
29120;SDS011;16191;49.548;8.658;2022-11-20T04:36:10;26.25;;;16.30;;
29120;SDS011;16191;49.548;8.658;2022-11-20T04:41:05;29.65;;;16.38;;
29120;SDS011;16191;49.548;8.658;2022-11-20T04:43:33;27.48;;;16.95;;
29120;SDS011;16191;49.548;8.658;2022-11-20T04:46:00;26.27;;;15.55;;
29120;SDS011;16191;49.548;8.658;2022-11-20T04:48:28;26.17;;;16.27;;
29120;SDS011;16191;49.548;8.658;2022-11-20T04:50:56;29.15;;;17.20;;
29120;SDS011;16191;49.548;8.658;2022-11-20T04:53:23;25.38;;;16.67;;
29120;SDS011;16191;49.548;8.658;2022-11-20T04:55:50;27.50;;;16.70;;
29120;SDS011;16191;49.548;8.658;2022-11-20T04:58:17;29.65;;;17.95;;
29120;SDS011;16191;49.548;8.658;2022-11-20T05:00:44;28.17;;;16.30;;
29120;SDS011;16191;49.548;8.658;2022-11-20T05:03:10;31.40;;;17.42;;
29120;SDS011;16191;49.548;8.658;2022-11-20T05:05:37;23.88;;;15.90;;
29120;SDS011;16191;49.548;8.658;2022-11-20T05:08:04;26.80;;;16.80;;
29120;SDS011;16191;49.548;8.658;2022-11-20T05:10:30;26.75;;;17.17;;
29120;SDS011;16191;49.548;8.658;2022-11-20T05:12:57;21.77;;;14.75;;
29120;SDS011;16191;49.548;8.658;2022-11-20T05:15:24;27.00;;;17.17;;
29120;SDS011;16191;49.548;8.658;2022-11-20T05:17:52;28.73;;;16.33;;
29120;SDS011;16191;49.548;8.658;2022-11-20T05:20:19;28.13;;;16.95;;
29120;SDS011;16191;49.548;8.658;2022-11-20T05:22:46;26.65;;;16.40;;
29120;SDS011;16191;49.548;8.658;2022-11-20T05:25:13;28.00;;;16.88;;
29120;SDS011;16191;49.548;8.658;2022-11-20T05:27:39;28.33;;;17.63;;
29120;SDS011;16191;49.548;8.658;2022-11-20T05:30:06;27.52;;;16.20;;
29120;SDS011;16191;49.548;8.658;2022-11-20T05:32:34;26.77;;;16.45;;
29120;SDS011;16191;49.548;8.658;2022-11-20T05:35:01;24.90;;;16.55;;
29120;SDS011;16191;49.548;8.658;2022-11-20T05:37:27;25.02;;;15.70;;
29120;SDS011;16191;49.548;8.658;2022-11-20T05:39:54;30.13;;;17.10;;
29120;SDS011;16191;49.548;8.658;2022-11-20T05:42:21;27.60;;;15.68;;
29120;SDS011;16191;49.548;8.658;2022-11-20T05:45:01;27.83;;;16.52;;
29120;SDS011;16191;49.548;8.658;2022-11-20T05:47:31;28.33;;;16.95;;
29120;SDS011;16191;49.548;8.658;2022-11-20T05:52:29;28.02;;;15.23;;
29120;SDS011;16191;49.548;8.658;2022-11-20T05:57:23;28.58;;;15.43;;
29120;SDS011;16191;49.548;8.658;2022-11-20T05:59:50;28.17;;;16.80;;
29120;SDS011;16191;49.548;8.658;2022-11-20T06:02:17;27.00;;;16.42;;
29120;SDS011;16191;49.548;8.658;2022-11-20T06:04:44;31.17;;;17.85;;
29120;SDS011;16191;49.548;8.658;2022-11-20T06:07:11;24.05;;;16.27;;
29120;SDS011;16191;49.548;8.658;2022-11-20T06:09:37;24.83;;;15.80;;
29120;SDS011;16191;49.548;8.658;2022-11-20T06:12:04;29.45;;;15.82;;
29120;SDS011;16191;49.548;8.658;2022-11-20T06:14:31;28.00;;;16.67;;
29120;SDS011;16191;49.548;8.658;2022-11-20T06:16:58;27.98;;;16.63;;
29120;SDS011;16191;49.548;8.658;2022-11-20T06:19:25;27.33;;;16.83;;
29120;SDS011;16191;49.548;8.658;2022-11-20T06:21:52;27.33;;;16.40;;
29120;SDS011;16191;49.548;8.658;2022-11-20T06:24:18;29.65;;;15.52;;
29120;SDS011;16191;49.548;8.658;2022-11-20T06:26:45;26.58;;;16.90;;
29120;SDS011;16191;49.548;8.658;2022-11-20T06:29:12;26.25;;;16.35;;
29120;SDS011;16191;49.548;8.658;2022-11-20T06:31:39;25.13;;;15.57;;
29120;SDS011;16191;49.548;8.658;2022-11-20T06:34:06;30.30;;;18.42;;
29120;SDS011;16191;49.548;8.658;2022-11-20T06:36:33;30.67;;;17.77;;
29120;SDS011;16191;49.548;8.658;2022-11-20T06:39:00;30.20;;;17.60;;
29120;SDS011;16191;49.548;8.658;2022-11-20T06:41:27;26.90;;;16.50;;
29120;SDS011;16191;49.548;8.658;2022-11-20T06:43:54;32.42;;;18.05;;
29120;SDS011;16191;49.548;8.658;2022-11-20T06:46:21;29.02;;;16.90;;
29120;SDS011;16191;49.548;8.658;2022-11-20T06:48:48;28.52;;;16.92;;
29120;SDS011;16191;49.548;8.658;2022-11-20T06:51:16;27.92;;;16.83;;
29120;SDS011;16191;49.548;8.658;2022-11-20T06:53:43;28.85;;;16.98;;
29120;SDS011;16191;49.548;8.658;2022-11-20T06:56:10;28.80;;;16.50;;
29120;SDS011;16191;49.548;8.658;2022-11-20T06:58:37;30.45;;;17.70;;
29120;SDS011;16191;49.548;8.658;2022-11-20T07:01:05;28.67;;;16.38;;
29120;SDS011;16191;49.548;8.658;2022-11-20T07:03:41;29.35;;;17.05;;
29120;SDS011;16191;49.548;8.658;2022-11-20T07:06:08;29.70;;;16.65;;
29120;SDS011;16191;49.548;8.658;2022-11-20T07:08:36;30.23;;;17.20;;
29120;SDS011;16191;49.548;8.658;2022-11-20T07:11:03;31.65;;;17.77;;
29120;SDS011;16191;49.548;8.658;2022-11-20T07:13:32;34.33;;;18.17;;
29120;SDS011;16191;49.548;8.658;2022-11-20T07:15:59;28.88;;;16.55;;
29120;SDS011;16191;49.548;8.658;2022-11-20T07:18:27;33.85;;;18.58;;
29120;SDS011;16191;49.548;8.658;2022-11-20T07:20:54;33.35;;;17.88;;
29120;SDS011;16191;49.548;8.658;2022-11-20T07:23:20;31.75;;;17.67;;
29120;SDS011;16191;49.548;8.658;2022-11-20T07:25:47;35.55;;;17.50;;
29120;SDS011;16191;49.548;8.658;2022-11-20T07:28:14;32.58;;;17.20;;
29120;SDS011;16191;49.548;8.658;2022-11-20T07:30:40;29.35;;;17.23;;
29120;SDS011;16191;49.548;8.658;2022-11-20T07:33:07;32.28;;;17.73;;
29120;SDS011;16191;49.548;8.658;2022-11-20T07:35:34;27.98;;;16.88;;
29120;SDS011;16191;49.548;8.658;2022-11-20T07:38:02;28.52;;;17.48;;
29120;SDS011;16191;49.548;8.658;2022-11-20T07:40:28;28.95;;;16.88;;
29120;SDS011;16191;49.548;8.658;2022-11-20T07:42:55;30.25;;;18.02;;
29120;SDS011;16191;49.548;8.658;2022-11-20T07:45:23;28.30;;;17.08;;
29120;SDS011;16191;49.548;8.658;2022-11-20T07:47:50;28.67;;;16.80;;
29120;SDS011;16191;49.548;8.658;2022-11-20T07:50:18;28.20;;;16.88;;
29120;SDS011;16191;49.548;8.658;2022-11-20T07:52:45;30.52;;;17.42;;
29120;SDS011;16191;49.548;8.658;2022-11-20T07:55:12;33.08;;;18.42;;
29120;SDS011;16191;49.548;8.658;2022-11-20T07:57:40;26.00;;;16.65;;
29120;SDS011;16191;49.548;8.658;2022-11-20T08:00:08;33.13;;;19.08;;
29120;SDS011;16191;49.548;8.658;2022-11-20T08:02:40;29.77;;;18.48;;
29120;SDS011;16191;49.548;8.658;2022-11-20T08:05:10;32.95;;;17.75;;
29120;SDS011;16191;49.548;8.658;2022-11-20T08:07:38;33.67;;;19.20;;
29120;SDS011;16191;49.548;8.658;2022-11-20T08:10:06;30.92;;;19.13;;
29120;SDS011;16191;49.548;8.658;2022-11-20T08:12:34;31.33;;;18.10;;
29120;SDS011;16191;49.548;8.658;2022-11-20T08:15:19;32.38;;;18.85;;
29120;SDS011;16191;49.548;8.658;2022-11-20T08:17:46;29.27;;;17.27;;
29120;SDS011;16191;49.548;8.658;2022-11-20T08:20:33;32.17;;;19.67;;
29120;SDS011;16191;49.548;8.658;2022-11-20T08:23:01;33.47;;;18.63;;
29120;SDS011;16191;49.548;8.658;2022-11-20T08:25:29;31.15;;;17.70;;
29120;SDS011;16191;49.548;8.658;2022-11-20T08:28:01;31.73;;;18.02;;
29120;SDS011;16191;49.548;8.658;2022-11-20T08:30:45;27.38;;;16.33;;
29120;SDS011;16191;49.548;8.658;2022-11-20T08:33:12;29.38;;;16.45;;
29120;SDS011;16191;49.548;8.658;2022-11-20T08:35:39;32.55;;;16.08;;
29120;SDS011;16191;49.548;8.658;2022-11-20T08:38:08;30.63;;;17.23;;
29120;SDS011;16191;49.548;8.658;2022-11-20T08:40:35;30.45;;;16.45;;
29120;SDS011;16191;49.548;8.658;2022-11-20T08:43:02;30.75;;;17.75;;
29120;SDS011;16191;49.548;8.658;2022-11-20T08:45:28;36.45;;;18.75;;
29120;SDS011;16191;49.548;8.658;2022-11-20T08:48:00;37.15;;;19.52;;
29120;SDS011;16191;49.548;8.658;2022-11-20T08:50:28;42.03;;;20.13;;
29120;SDS011;16191;49.548;8.658;2022-11-20T08:53:04;43.50;;;20.38;;
29120;SDS011;16191;49.548;8.658;2022-11-20T08:55:31;44.88;;;21.65;;
29120;SDS011;16191;49.548;8.658;2022-11-20T08:58:02;48.17;;;23.33;;
29120;SDS011;16191;49.548;8.658;2022-11-20T09:00:30;43.00;;;21.63;;
29120;SDS011;16191;49.548;8.658;2022-11-20T09:02:57;37.60;;;20.30;;
29120;SDS011;16191;49.548;8.658;2022-11-20T09:05:25;49.95;;;23.23;;
29120;SDS011;16191;49.548;8.658;2022-11-20T09:07:51;42.85;;;22.13;;
29120;SDS011;16191;49.548;8.658;2022-11-20T09:10:18;52.83;;;25.10;;
29120;SDS011;16191;49.548;8.658;2022-11-20T09:12:53;48.33;;;23.27;;
29120;SDS011;16191;49.548;8.658;2022-11-20T09:15:21;45.55;;;22.63;;
29120;SDS011;16191;49.548;8.658;2022-11-20T09:17:52;43.63;;;22.30;;
29120;SDS011;16191;49.548;8.658;2022-11-20T09:20:20;51.63;;;25.35;;
29120;SDS011;16191;49.548;8.658;2022-11-20T09:22:47;52.40;;;26.13;;
29120;SDS011;16191;49.548;8.658;2022-11-20T09:25:13;50.03;;;25.27;;
29120;SDS011;16191;49.548;8.658;2022-11-20T09:27:41;49.03;;;24.27;;
29120;SDS011;16191;49.548;8.658;2022-11-20T09:30:09;52.33;;;25.08;;
29120;SDS011;16191;49.548;8.658;2022-11-20T09:32:38;57.90;;;25.83;;
29120;SDS011;16191;49.548;8.658;2022-11-20T09:35:05;51.95;;;24.05;;
29120;SDS011;16191;49.548;8.658;2022-11-20T09:37:33;57.58;;;26.77;;
29120;SDS011;16191;49.548;8.658;2022-11-20T09:40:00;51.17;;;25.10;;
29120;SDS011;16191;49.548;8.658;2022-11-20T09:50:35;47.63;;;23.67;;
29120;SDS011;16191;49.548;8.658;2022-11-20T09:53:10;43.80;;;21.77;;
29120;SDS011;16191;49.548;8.658;2022-11-20T09:55:40;45.30;;;22.15;;
29120;SDS011;16191;49.548;8.658;2022-11-20T09:58:07;44.65;;;22.95;;
29120;SDS011;16191;49.548;8.658;2022-11-20T10:00:46;45.33;;;22.33;;
29120;SDS011;16191;49.548;8.658;2022-11-20T10:03:16;44.50;;;21.90;;
29120;SDS011;16191;49.548;8.658;2022-11-20T10:05:49;47.55;;;21.85;;
29120;SDS011;16191;49.548;8.658;2022-11-20T10:08:28;44.38;;;22.05;;
29120;SDS011;16191;49.548;8.658;2022-11-20T10:11:06;51.65;;;22.77;;
29120;SDS011;16191;49.548;8.658;2022-11-20T10:22:05;47.40;;;22.23;;
29120;SDS011;16191;49.548;8.658;2022-11-20T10:24:55;47.75;;;22.75;;
29120;SDS011;16191;49.548;8.658;2022-11-20T10:30:00;54.22;;;26.05;;
29120;SDS011;16191;49.548;8.658;2022-11-20T10:33:01;49.30;;;23.20;;
29120;SDS011;16191;49.548;8.658;2022-11-20T10:35:37;56.78;;;24.15;;
29120;SDS011;16191;49.548;8.658;2022-11-20T10:38:11;53.00;;;24.90;;
29120;SDS011;16191;49.548;8.658;2022-11-20T10:40:48;50.92;;;25.98;;
29120;SDS011;16191;49.548;8.658;2022-11-20T10:43:31;52.65;;;25.33;;
29120;SDS011;16191;49.548;8.658;2022-11-20T10:46:03;56.83;;;26.95;;
29120;SDS011;16191;49.548;8.658;2022-11-20T10:48:35;52.72;;;26.00;;
29120;SDS011;16191;49.548;8.658;2022-11-20T10:51:10;53.45;;;26.42;;
29120;SDS011;16191;49.548;8.658;2022-11-20T10:53:53;52.13;;;26.42;;
29120;SDS011;16191;49.548;8.658;2022-11-20T11:01:58;58.28;;;27.77;;
29120;SDS011;16191;49.548;8.658;2022-11-20T11:04:30;50.15;;;24.05;;
29120;SDS011;16191;49.548;8.658;2022-11-20T11:07:09;56.22;;;26.92;;
29120;SDS011;16191;49.548;8.658;2022-11-20T11:09:49;48.63;;;23.63;;
29120;SDS011;16191;49.548;8.658;2022-11-20T11:12:19;52.47;;;26.17;;
29120;SDS011;16191;49.548;8.658;2022-11-20T11:14:48;45.83;;;24.65;;
29120;SDS011;16191;49.548;8.658;2022-11-20T11:17:27;48.30;;;24.55;;
29120;SDS011;16191;49.548;8.658;2022-11-20T11:20:02;50.95;;;26.95;;
29120;SDS011;16191;49.548;8.658;2022-11-20T11:22:33;52.78;;;26.50;;
29120;SDS011;16191;49.548;8.658;2022-11-20T11:25:18;53.33;;;25.20;;
29120;SDS011;16191;49.548;8.658;2022-11-20T11:27:47;62.50;;;26.42;;
29120;SDS011;16191;49.548;8.658;2022-11-20T11:30:16;55.72;;;25.52;;
29120;SDS011;16191;49.548;8.658;2022-11-20T11:32:44;53.63;;;25.13;;
29120;SDS011;16191;49.548;8.658;2022-11-20T11:37:50;55.03;;;26.17;;
29120;SDS011;16191;49.548;8.658;2022-11-20T11:40:20;50.53;;;24.25;;
29120;SDS011;16191;49.548;8.658;2022-11-20T11:42:56;55.88;;;26.10;;
29120;SDS011;16191;49.548;8.658;2022-11-20T11:45:26;45.75;;;23.98;;
29120;SDS011;16191;49.548;8.658;2022-11-20T11:47:57;49.80;;;24.92;;
29120;SDS011;16191;49.548;8.658;2022-11-20T11:50:27;48.80;;;24.42;;
29120;SDS011;16191;49.548;8.658;2022-11-20T11:55:38;48.17;;;24.63;;
29120;SDS011;16191;49.548;8.658;2022-11-20T12:01:15;47.13;;;24.85;;
29120;SDS011;16191;49.548;8.658;2022-11-20T12:06:41;46.38;;;23.48;;
29120;SDS011;16191;49.548;8.658;2022-11-20T12:09:11;47.75;;;22.95;;
29120;SDS011;16191;49.548;8.658;2022-11-20T12:11:46;39.53;;;21.88;;
29120;SDS011;16191;49.548;8.658;2022-11-20T12:14:27;44.65;;;22.17;;
29120;SDS011;16191;49.548;8.658;2022-11-20T12:17:02;45.10;;;23.30;;
29120;SDS011;16191;49.548;8.658;2022-11-20T12:19:29;41.00;;;22.65;;
29120;SDS011;16191;49.548;8.658;2022-11-20T12:35:51;42.60;;;21.42;;
29120;SDS011;16191;49.548;8.658;2022-11-20T12:43:22;37.53;;;21.23;;
29120;SDS011;16191;49.548;8.658;2022-11-20T12:49:31;48.50;;;22.35;;
29120;SDS011;16191;49.548;8.658;2022-11-20T12:54:58;49.85;;;24.67;;
29120;SDS011;16191;49.548;8.658;2022-11-20T12:57:43;43.45;;;23.45;;
29120;SDS011;16191;49.548;8.658;2022-11-20T13:00:18;45.47;;;23.10;;
29120;SDS011;16191;49.548;8.658;2022-11-20T13:08:15;37.28;;;21.02;;
29120;SDS011;16191;49.548;8.658;2022-11-20T13:10:58;43.00;;;22.52;;
29120;SDS011;16191;49.548;8.658;2022-11-20T13:16:46;39.25;;;21.90;;
29120;SDS011;16191;49.548;8.658;2022-11-20T13:19:19;39.13;;;22.17;;
29120;SDS011;16191;49.548;8.658;2022-11-20T13:21:47;44.15;;;23.25;;
29120;SDS011;16191;49.548;8.658;2022-11-20T13:27:00;43.75;;;23.20;;
29120;SDS011;16191;49.548;8.658;2022-11-20T13:29:44;43.42;;;23.85;;
29120;SDS011;16191;49.548;8.658;2022-11-20T13:34:53;40.33;;;22.40;;
29120;SDS011;16191;49.548;8.658;2022-11-20T13:37:31;36.95;;;22.00;;
29120;SDS011;16191;49.548;8.658;2022-11-20T13:42:39;42.35;;;22.30;;
29120;SDS011;16191;49.548;8.658;2022-11-20T13:45:22;38.85;;;20.50;;
29120;SDS011;16191;49.548;8.658;2022-11-20T13:47:51;32.23;;;19.80;;
29120;SDS011;16191;49.548;8.658;2022-11-20T13:50:21;34.97;;;18.88;;
29120;SDS011;16191;49.548;8.658;2022-11-20T13:53:09;27.92;;;17.33;;
29120;SDS011;16191;49.548;8.658;2022-11-20T13:56:00;25.45;;;15.93;;
29120;SDS011;16191;49.548;8.658;2022-11-20T13:58:40;29.00;;;15.70;;
29120;SDS011;16191;49.548;8.658;2022-11-20T14:01:26;25.98;;;16.58;;
29120;SDS011;16191;49.548;8.658;2022-11-20T14:03:58;21.42;;;13.07;;
29120;SDS011;16191;49.548;8.658;2022-11-20T14:06:33;25.27;;;13.27;;
29120;SDS011;16191;49.548;8.658;2022-11-20T14:09:09;20.45;;;12.00;;
29120;SDS011;16191;49.548;8.658;2022-11-20T14:11:45;20.77;;;13.18;;
29120;SDS011;16191;49.548;8.658;2022-11-20T14:14:15;21.88;;;12.90;;
29120;SDS011;16191;49.548;8.658;2022-11-20T14:16:43;18.65;;;11.75;;
29120;SDS011;16191;49.548;8.658;2022-11-20T14:21:47;20.85;;;12.77;;
29120;SDS011;16191;49.548;8.658;2022-11-20T14:24:35;19.25;;;10.90;;
29120;SDS011;16191;49.548;8.658;2022-11-20T14:27:01;20.17;;;11.82;;
29120;SDS011;16191;49.548;8.658;2022-11-20T14:29:29;21.45;;;10.23;;
29120;SDS011;16191;49.548;8.658;2022-11-20T14:32:01;21.92;;;10.25;;
29120;SDS011;16191;49.548;8.658;2022-11-20T14:34:30;18.15;;;9.82;;
29120;SDS011;16191;49.548;8.658;2022-11-20T14:37:00;21.98;;;9.10;;
29120;SDS011;16191;49.548;8.658;2022-11-20T14:39:33;12.35;;;6.90;;
29120;SDS011;16191;49.548;8.658;2022-11-20T14:42:01;12.47;;;5.53;;
29120;SDS011;16191;49.548;8.658;2022-11-20T14:44:33;11.95;;;4.90;;
29120;SDS011;16191;49.548;8.658;2022-11-20T14:47:04;9.90;;;3.55;;
29120;SDS011;16191;49.548;8.658;2022-11-20T14:49:31;10.18;;;3.80;;
29120;SDS011;16191;49.548;8.658;2022-11-20T14:52:18;9.00;;;2.85;;
29120;SDS011;16191;49.548;8.658;2022-11-20T14:54:48;7.75;;;2.72;;
29120;SDS011;16191;49.548;8.658;2022-11-20T14:57:28;5.00;;;1.80;;
29120;SDS011;16191;49.548;8.658;2022-11-20T15:00:19;7.22;;;2.58;;
29120;SDS011;16191;49.548;8.658;2022-11-20T15:02:46;8.15;;;2.15;;
29120;SDS011;16191;49.548;8.658;2022-11-20T15:05:15;4.88;;;2.00;;
29120;SDS011;16191;49.548;8.658;2022-11-20T15:07:45;9.18;;;1.92;;
29120;SDS011;16191;49.548;8.658;2022-11-20T15:10:27;5.13;;;1.70;;
29120;SDS011;16191;49.548;8.658;2022-11-20T15:15:30;7.03;;;1.60;;
29120;SDS011;16191;49.548;8.658;2022-11-20T15:18:18;6.47;;;1.70;;
29120;SDS011;16191;49.548;8.658;2022-11-20T15:20:47;4.32;;;2.03;;
29120;SDS011;16191;49.548;8.658;2022-11-20T15:23:17;7.13;;;1.63;;
29120;SDS011;16191;49.548;8.658;2022-11-20T15:25:45;7.28;;;2.00;;
29120;SDS011;16191;49.548;8.658;2022-11-20T15:28:16;7.22;;;2.10;;
29120;SDS011;16191;49.548;8.658;2022-11-20T15:30:46;4.95;;;2.08;;
29120;SDS011;16191;49.548;8.658;2022-11-20T15:33:14;8.55;;;2.30;;
29120;SDS011;16191;49.548;8.658;2022-11-20T15:35:42;10.15;;;2.45;;
29120;SDS011;16191;49.548;8.658;2022-11-20T15:38:09;7.68;;;2.00;;
29120;SDS011;16191;49.548;8.658;2022-11-20T15:40:36;10.60;;;2.92;;
29120;SDS011;16191;49.548;8.658;2022-11-20T15:43:03;13.02;;;4.38;;
29120;SDS011;16191;49.548;8.658;2022-11-20T15:45:37;11.15;;;3.97;;
29120;SDS011;16191;49.548;8.658;2022-11-20T15:48:14;11.20;;;4.30;;
29120;SDS011;16191;49.548;8.658;2022-11-20T15:50:48;8.30;;;4.30;;
29120;SDS011;16191;49.548;8.658;2022-11-20T15:53:18;10.60;;;4.05;;
29120;SDS011;16191;49.548;8.658;2022-11-20T15:55:45;9.02;;;4.13;;
29120;SDS011;16191;49.548;8.658;2022-11-20T15:58:12;9.88;;;4.30;;
29120;SDS011;16191;49.548;8.658;2022-11-20T16:00:39;16.02;;;6.15;;
29120;SDS011;16191;49.548;8.658;2022-11-20T16:03:08;14.63;;;7.40;;
29120;SDS011;16191;49.548;8.658;2022-11-20T16:05:37;17.10;;;5.97;;
29120;SDS011;16191;49.548;8.658;2022-11-20T16:08:04;10.52;;;5.18;;
29120;SDS011;16191;49.548;8.658;2022-11-20T16:10:37;13.32;;;4.45;;
29120;SDS011;16191;49.548;8.658;2022-11-20T16:13:05;8.77;;;3.90;;
29120;SDS011;16191;49.548;8.658;2022-11-20T16:15:57;10.98;;;4.93;;
29120;SDS011;16191;49.548;8.658;2022-11-20T16:18:25;11.45;;;4.15;;
29120;SDS011;16191;49.548;8.658;2022-11-20T16:20:52;9.70;;;4.68;;
29120;SDS011;16191;49.548;8.658;2022-11-20T16:23:20;9.15;;;4.32;;
29120;SDS011;16191;49.548;8.658;2022-11-20T16:25:47;11.70;;;5.05;;